Time;durP1;ratioP1;P1;durP2;ratioP2;P2;SDS_P1;SDS_P2;PMS_P1;PMS_P2;Temp;Humidity;BMP_temperature;BMP_pressure;BME280_temperature;BME280_humidity;BME280_pressure;Samples;Min_cycle;Max_cycle;Signal;HPM_P1;HPM_P2
2023/07/10 00:01:06;;;;;;;5.15;3.10;;;19.50;40.10;;;;;;5046367;28;20036;-56
2023/07/10 00:03:32;;;;;;;4.13;2.92;;;19.50;41.10;;;;;;5028833;28;20412;-55
2023/07/10 00:05:59;;;;;;;6.05;3.88;;;19.50;41.60;;;;;;5021859;28;20088;-53
2023/07/10 00:08:25;;;;;;;5.43;3.60;;;19.50;41.50;;;;;;5048685;28;20116;-55
2023/07/10 00:10:51;;;;;;;6.55;3.17;;;19.50;41.60;;;;;;5027520;28;20068;-54
2023/07/10 00:13:21;;;;;;;6.07;3.88;;;19.40;42.30;;;;;;5048411;28;20036;-55
2023/07/10 00:15:48;;;;;;;5.45;3.60;;;19.40;42.70;;;;;;5024256;28;20041;-60
2023/07/10 00:18:16;;;;;;;4.32;3.08;;;19.40;43.60;;;;;;5048616;28;20028;-58
2023/07/10 00:20:42;;;;;;;4.07;3.47;;;19.40;43.50;;;;;;5027346;28;20040;-57
2023/07/10 00:23:08;;;;;;;3.45;3.10;;;19.40;44.10;;;;;;5044057;28;20690;-58
2023/07/10 00:25:35;;;;;;;5.55;3.05;;;19.40;44.00;;;;;;5029404;28;20017;-58
2023/07/10 00:28:01;;;;;;;3.95;3.30;;;19.30;44.10;;;;;;5046460;28;20083;-59
2023/07/10 00:30:26;;;;;;;5.18;3.72;;;19.30;45.10;;;;;;5036350;28;20041;-56
2023/07/10 00:32:53;;;;;;;3.70;2.92;;;19.40;45.10;;;;;;5047865;28;20040;-55
2023/07/10 00:35:24;;;;;;;3.92;3.25;;;19.40;43.00;;;;;;5009421;28;20079;-56
2023/07/10 00:38:02;;;;;;;3.95;2.92;;;19.40;41.30;;;;;;5009361;28;20038;-56
2023/07/10 00:40:30;;;;;;;6.30;2.95;;;19.40;41.10;;;;;;5008297;28;20087;-56
2023/07/10 00:43:12;;;;;;;3.85;3.03;;;19.50;40.60;;;;;;5045938;28;20017;-58
2023/07/10 00:45:38;;;;;;;4.70;2.85;;;19.40;41.50;;;;;;5029051;28;20033;-59
2023/07/10 00:48:33;;;;;;;4.65;2.83;;;19.40;41.20;;;;;;5044800;28;20055;-61
2023/07/10 00:51:11;;;;;;;3.88;3.22;;;19.40;41.90;;;;;;5027560;28;20089;-59
2023/07/10 00:53:40;;;;;;;4.78;2.90;;;19.40;41.60;;;;;;5013106;28;20033;-59
2023/07/10 00:56:13;;;;;;;3.55;2.85;;;19.30;41.90;;;;;;5027696;28;20028;-59
2023/07/10 00:58:42;;;;;;;3.08;2.50;;;19.30;42.30;;;;;;5013274;28;20025;-58
2023/07/10 01:01:09;;;;;;;3.90;2.50;;;19.30;43.20;;;;;;5028719;28;20032;-59
2023/07/10 01:03:37;;;;;;;3.83;2.83;;;19.20;43.60;;;;;;5044999;28;20032;-60
2023/07/10 01:06:09;;;;;;;3.75;2.97;;;19.20;44.00;;;;;;5028046;28;20025;-60
2023/07/10 01:08:36;;;;;;;3.40;3.10;;;19.20;44.00;;;;;;5012804;28;20091;-59
2023/07/10 01:11:02;;;;;;;4.60;2.88;;;19.10;44.10;;;;;;5028476;28;20060;-60
2023/07/10 01:13:27;;;;;;;6.13;3.55;;;19.10;44.70;;;;;;5041149;28;20107;-59
2023/07/10 01:15:53;;;;;;;4.22;3.47;;;19.10;45.00;;;;;;5028666;28;20033;-54
2023/07/10 01:18:19;;;;;;;3.05;2.75;;;19.10;45.10;;;;;;5032637;28;20032;-51
2023/07/10 01:20:49;;;;;;;4.32;3.05;;;19.10;45.00;;;;;;5047611;28;20029;-51
2023/07/10 01:23:17;;;;;;;3.50;3.08;;;19.10;45.50;;;;;;5020314;28;20397;-50
2023/07/10 01:25:50;;;;;;;3.70;3.00;;;19.10;46.30;;;;;;5051365;28;20033;-53
2023/07/10 01:28:18;;;;;;;4.70;3.35;;;19.10;46.40;;;;;;5016707;28;20030;-50
2023/07/10 01:30:45;;;;;;;4.30;3.00;;;19.10;46.30;;;;;;5049663;28;20057;-50
2023/07/10 01:33:18;;;;;;;3.13;2.63;;;19.10;46.70;;;;;;5030559;28;20057;-51
2023/07/10 01:35:47;;;;;;;4.28;2.92;;;19.10;46.90;;;;;;5012206;28;20192;-51
2023/07/10 01:38:14;;;;;;;4.20;3.00;;;19.20;47.20;;;;;;5037101;28;20125;-50
2023/07/10 01:40:43;;;;;;;4.43;3.20;;;19.20;47.90;;;;;;5051404;28;20490;-53
2023/07/10 01:43:09;;;;;;;3.45;2.88;;;19.20;48.40;;;;;;5030059;28;20436;-48
2023/07/10 01:45:44;;;;;;;4.63;3.03;;;19.20;49.20;;;;;;5051126;28;20025;-50
2023/07/10 01:48:12;;;;;;;3.13;2.72;;;19.30;49.60;;;;;;5030143;28;20041;-50
2023/07/10 01:50:38;;;;;;;3.42;2.72;;;19.30;50.40;;;;;;5051248;28;20040;-51
2023/07/10 01:53:04;;;;;;;3.08;2.47;;;19.30;50.60;;;;;;5041589;28;20029;-51
2023/07/10 01:55:38;;;;;;;3.45;2.90;;;19.40;51.10;;;;;;5051738;28;20048;-53
2023/07/10 01:58:04;;;;;;;4.60;2.75;;;19.40;51.40;;;;;;5021230;28;20025;-51
2023/07/10 02:00:29;;;;;;;4.45;3.30;;;19.40;51.50;;;;;;5050729;28;20028;-50
2023/07/10 02:02:54;;;;;;;4.05;3.30;;;19.40;51.70;;;;;;5030053;28;20033;-52
2023/07/10 02:05:20;;;;;;;3.72;2.95;;;19.50;52.20;;;;;;5038975;28;20521;-50
2023/07/10 02:07:45;;;;;;;4.25;3.08;;;19.50;52.10;;;;;;5039854;28;20021;-53
2023/07/10 02:10:11;;;;;;;4.97;3.17;;;19.50;51.80;;;;;;5050656;28;20064;-54
2023/07/10 02:12:36;;;;;;;4.43;2.72;;;19.50;51.60;;;;;;5029988;28;20025;-51
2023/07/10 02:15:02;;;;;;;4.03;2.83;;;19.50;52.50;;;;;;5031269;28;20049;-51
2023/07/10 02:17:27;;;;;;;4.60;3.40;;;19.50;51.90;;;;;;5042276;28;20025;-49
2023/07/10 02:19:53;;;;;;;4.40;3.70;;;19.50;51.80;;;;;;5031226;28;20115;-52
2023/07/10 02:22:18;;;;;;;4.85;2.83;;;19.50;52.00;;;;;;5043269;28;20057;-53
2023/07/10 02:24:44;;;;;;;3.60;3.05;;;19.50;51.50;;;;;;5031254;28;20021;-53
2023/07/10 02:27:09;;;;;;;4.03;3.45;;;19.50;51.40;;;;;;5044725;28;20033;-52
2023/07/10 02:29:35;;;;;;;5.05;3.10;;;19.50;51.90;;;;;;5035857;28;20045;-51
2023/07/10 02:32:01;;;;;;;4.38;3.10;;;19.50;53.50;;;;;;5048872;28;20018;-51
2023/07/10 02:34:27;;;;;;;4.30;3.30;;;19.50;54.00;;;;;;5049852;28;20040;-54
2023/07/10 02:36:52;;;;;;;4.85;3.50;;;19.40;54.40;;;;;;5029181;28;20493;-53
2023/07/10 02:39:18;;;;;;;4.97;3.90;;;19.40;57.20;;;;;;5030917;28;20168;-54
2023/07/10 02:41:43;;;;;;;4.78;3.90;;;19.30;57.10;;;;;;5047702;28;20021;-56
2023/07/10 02:44:09;;;;;;;6.07;3.95;;;19.30;57.20;;;;;;5030821;28;20065;-54
2023/07/10 02:46:34;;;;;;;5.43;3.38;;;19.30;57.10;;;;;;5050004;28;20040;-53
2023/07/10 02:49:00;;;;;;;4.13;3.63;;;19.20;57.20;;;;;;5029424;28;20037;-51
2023/07/10 02:51:25;;;;;;;5.32;3.30;;;19.20;58.10;;;;;;5047618;28;20549;-50
2023/07/10 02:53:51;;;;;;;7.45;4.30;;;19.20;59.90;;;;;;5050615;28;20071;-53
2023/07/10 02:56:16;;;;;;;5.55;4.10;;;19.20;59.10;;;;;;5029260;28;20398;-52
2023/07/10 02:58:42;;;;;;;5.60;3.80;;;19.20;59.10;;;;;;5030704;28;20029;-54
2023/07/10 03:01:07;;;;;;;5.38;3.90;;;19.20;60.00;;;;;;5047725;28;20060;-51
2023/07/10 03:03:33;;;;;;;4.25;3.70;;;19.20;59.40;;;;;;5030820;28;20703;-47
2023/07/10 03:06:01;;;;;;;3.92;3.45;;;19.20;59.30;;;;;;5046086;28;20632;-51
2023/07/10 03:08:27;;;;;;;6.80;3.67;;;19.20;59.30;;;;;;5028811;28;20630;-52
2023/07/10 03:11:04;;;;;;;3.92;3.35;;;19.30;59.10;;;;;;5049613;28;20041;-53
2023/07/10 03:13:30;;;;;;;4.60;3.30;;;19.30;59.70;;;;;;5047977;28;20104;-53
2023/07/10 03:16:10;;;;;;;4.75;3.38;;;19.30;60.00;;;;;;5049951;28;20450;-51
2023/07/10 03:18:36;;;;;;;5.10;3.72;;;19.30;61.00;;;;;;5010602;28;20033;-49
2023/07/10 03:21:01;;;;;;;5.45;3.75;;;19.30;61.70;;;;;;5048831;28;20036;-53
2023/07/10 03:23:27;;;;;;;4.43;3.22;;;19.30;61.20;;;;;;5028864;28;20065;-51
2023/07/10 03:25:52;;;;;;;4.30;3.60;;;19.30;60.90;;;;;;5049408;28;20433;-49
2023/07/10 03:28:18;;;;;;;4.28;3.38;;;19.30;61.70;;;;;;5028830;28;20029;-53
2023/07/10 03:30:44;;;;;;;4.05;3.30;;;19.30;61.90;;;;;;5049002;28;20085;-53
2023/07/10 03:33:14;;;;;;;6.45;3.70;;;19.30;63.30;;;;;;5028681;28;20037;-50
2023/07/10 03:35:40;;;;;;;6.80;4.25;;;19.20;62.00;;;;;;5010278;28;20038;-53
2023/07/10 03:38:06;;;;;;;4.22;3.55;;;19.30;60.80;;;;;;5030506;28;20030;-52
2023/07/10 03:40:32;;;;;;;4.78;3.67;;;19.30;60.20;;;;;;5049233;28;20513;-51
2023/07/10 03:42:57;;;;;;;4.40;4.00;;;19.30;59.20;;;;;;5028583;28;20037;-49
2023/07/10 03:45:23;;;;;;;5.30;4.40;;;19.30;58.60;;;;;;5048921;28;20029;-53
2023/07/10 03:47:48;;;;;;;5.72;4.00;;;19.40;57.80;;;;;;5045941;28;20123;-52
2023/07/10 03:50:14;;;;;;;4.32;3.47;;;19.50;57.40;;;;;;5049488;28;20120;-53
2023/07/10 03:52:40;;;;;;;5.57;3.67;;;19.60;57.40;;;;;;5028326;28;20083;-54
2023/07/10 03:55:05;;;;;;;4.22;3.50;;;19.60;57.90;;;;;;5048715;28;20028;-51
2023/07/10 03:57:31;;;;;;;5.85;4.05;;;19.60;59.10;;;;;;5028316;28;20034;-47
2023/07/10 03:59:56;;;;;;;5.32;3.83;;;19.60;60.40;;;;;;5048822;28;20083;-53
2023/07/10 04:02:22;;;;;;;5.95;3.42;;;19.60;60.50;;;;;;5028223;28;20502;-51
2023/07/10 04:04:47;;;;;;;4.00;3.60;;;19.60;59.70;;;;;;5044603;28;20056;-53
2023/07/10 04:07:13;;;;;;;4.80;3.90;;;19.70;57.90;;;;;;5021375;28;20558;-52
2023/07/10 04:09:38;;;;;;;5.30;3.78;;;19.80;56.90;;;;;;5048622;28;20052;-50
2023/07/10 04:12:04;;;;;;;5.03;3.92;;;19.90;55.60;;;;;;5028007;28;20813;-53
2023/07/10 04:14:30;;;;;;;4.70;3.30;;;19.90;55.60;;;;;;5048593;28;20033;-54
2023/07/10 04:16:55;;;;;;;4.90;3.58;;;20.00;55.60;;;;;;5039991;28;20086;-48
2023/07/10 04:19:21;;;;;;;5.38;4.13;;;20.00;56.10;;;;;;5049204;28;20040;-52
2023/07/10 04:21:46;;;;;;;5.88;3.78;;;20.00;57.20;;;;;;5027903;28;20033;-53
2023/07/10 04:24:12;;;;;;;5.63;2.92;;;20.00;57.70;;;;;;5048386;28;20047;-49
2023/07/10 04:26:38;;;;;;;4.28;3.40;;;20.00;56.70;;;;;;5027986;28;20084;-51
2023/07/10 04:29:06;;;;;;;3.90;3.28;;;20.00;56.90;;;;;;5047049;28;20521;-52
2023/07/10 04:31:32;;;;;;;4.18;3.78;;;20.10;56.90;;;;;;5027363;28;20047;-51
2023/07/10 04:33:58;;;;;;;5.03;3.72;;;20.10;57.10;;;;;;5048493;28;20032;-54
2023/07/10 04:36:25;;;;;;;4.65;3.55;;;20.20;56.50;;;;;;5035239;28;20082;-53
2023/07/10 04:38:51;;;;;;;6.93;4.07;;;20.30;56.20;;;;;;5041431;28;20025;-53
2023/07/10 04:41:20;;;;;;;9.18;4.45;;;20.50;55.50;;;;;;5049136;28;20048;-52
2023/07/10 04:43:45;;;;;;;5.75;3.53;;;20.80;54.90;;;;;;5027242;28;20029;-49
2023/07/10 04:46:12;;;;;;;5.70;4.20;;;21.00;54.00;;;;;;5048190;28;20031;-54
2023/07/10 04:48:38;;;;;;;8.27;3.95;;;21.20;53.20;;;;;;5027512;28;20029;-52
2023/07/10 04:51:05;;;;;;;5.55;3.88;;;21.30;52.70;;;;;;5029067;28;20022;-54
2023/07/10 04:53:32;;;;;;;4.93;4.00;;;21.60;52.10;;;;;;5034282;28;20028;-52
2023/07/10 04:56:03;;;;;;;5.43;3.90;;;22.60;49.30;;;;;;5048170;28;20037;-52
2023/07/10 04:58:43;;;;;;;9.73;4.20;;;22.90;47.70;;;;;;5020812;28;20040;-54
2023/07/10 05:01:09;;;;;;;4.80;4.00;;;23.30;45.30;;;;;;5013272;28;20434;-51
2023/07/10 05:03:34;;;;;;;6.68;4.13;;;23.30;44.60;;;;;;5036853;28;20120;-51
2023/07/10 05:06:00;;;;;;;7.07;4.13;;;23.20;43.20;;;;;;5029548;28;20029;-52
2023/07/10 05:08:27;;;;;;;6.97;4.78;;;23.10;43.90;;;;;;5051744;28;20515;-53
2023/07/10 05:10:54;;;;;;;4.35;3.70;;;23.40;43.00;;;;;;5026851;28;20101;-53
2023/07/10 05:13:21;;;;;;;6.05;3.42;;;24.10;42.20;;;;;;5030920;28;20104;-51
2023/07/10 05:15:47;;;;;;;6.30;3.58;;;24.90;41.70;;;;;;5029099;28;20098;-54
2023/07/10 05:18:14;;;;;;;5.88;3.58;;;25.80;40.70;;;;;;5031219;28;20030;-54
2023/07/10 05:20:42;;;;;;;4.82;3.45;;;26.40;39.40;;;;;;5048463;28;20108;-56
2023/07/10 05:23:08;;;;;;;3.85;3.22;;;26.60;37.80;;;;;;5051094;28;20412;-55
2023/07/10 05:25:33;;;;;;;5.15;3.72;;;26.30;36.60;;;;;;5029785;28;20512;-54
2023/07/10 05:28:01;;;;;;;10.68;4.28;;;26.00;36.30;;;;;;5031099;28;20063;-55
2023/07/10 05:30:27;;;;;;;4.55;3.90;;;25.70;36.30;;;;;;5046045;28;20049;-54
2023/07/10 05:32:52;;;;;;;4.47;3.40;;;25.50;36.40;;;;;;5031038;28;20052;-56
2023/07/10 05:35:17;;;;;;;4.25;3.40;;;25.30;36.10;;;;;;5048077;28;20025;-52
2023/07/10 05:37:43;;;;;;;5.72;2.97;;;25.00;36.00;;;;;;5035962;28;20417;-54
2023/07/10 05:40:09;;;;;;;4.50;3.75;;;24.90;36.40;;;;;;5035122;28;20068;-56
2023/07/10 05:42:34;;;;;;;4.43;3.42;;;24.70;36.70;;;;;;5040163;28;20029;-56
2023/07/10 05:45:00;;;;;;;5.57;3.42;;;24.50;37.30;;;;;;5032891;28;20038;-54
2023/07/10 05:47:25;;;;;;;5.28;3.33;;;24.30;37.70;;;;;;5049831;28;20048;-55
2023/07/10 05:49:50;;;;;;;5.15;3.40;;;24.20;38.40;;;;;;5030038;28;20041;-56
2023/07/10 05:52:16;;;;;;;5.22;3.45;;;24.00;39.00;;;;;;5050834;28;20033;-55
2023/07/10 05:54:41;;;;;;;8.57;3.63;;;23.80;39.60;;;;;;5029857;28;20025;-54
2023/07/10 05:57:07;;;;;;;4.55;3.80;;;23.60;40.90;;;;;;5031473;28;20028;-55
2023/07/10 05:59:32;;;;;;;3.90;3.17;;;23.50;42.30;;;;;;5042424;28;20623;-55
2023/07/10 06:01:58;;;;;;;4.50;4.05;;;23.40;43.60;;;;;;5031394;28;20076;-55
2023/07/10 06:04:23;;;;;;;3.90;3.50;;;23.30;44.80;;;;;;5043329;28;20025;-56
2023/07/10 06:06:49;;;;;;;5.53;3.88;;;23.20;46.00;;;;;;5025433;28;20032;-54
2023/07/10 06:09:15;;;;;;;5.18;4.07;;;23.00;47.10;;;;;;5044222;28;20021;-52
2023/07/10 06:11:41;;;;;;;4.45;3.78;;;22.90;47.00;;;;;;5030998;28;20038;-53
2023/07/10 06:14:06;;;;;;;6.13;4.53;;;22.80;46.50;;;;;;5048449;28;20048;-56
2023/07/10 06:16:32;;;;;;;4.97;3.33;;;22.70;46.20;;;;;;5050816;28;20404;-55
2023/07/10 06:18:57;;;;;;;6.50;3.97;;;22.70;45.80;;;;;;5047373;28;20033;-55
2023/07/10 06:21:23;;;;;;;6.32;3.95;;;22.70;45.20;;;;;;5031106;28;20505;-53
2023/07/10 06:23:49;;;;;;;9.75;4.07;;;22.70;45.00;;;;;;5047884;28;20036;-55
2023/07/10 06:26:14;;;;;;;7.65;3.90;;;22.60;45.30;;;;;;5030962;28;20103;-56
2023/07/10 06:28:40;;;;;;;5.93;4.40;;;22.50;46.00;;;;;;5050011;28;20565;-57
2023/07/10 06:31:08;;;;;;;7.05;4.47;;;22.30;47.80;;;;;;5029276;28;20044;-53
2023/07/10 06:33:35;;;;;;;6.03;3.92;;;22.10;49.10;;;;;;5050245;28;20083;-55
2023/07/10 06:36:02;;;;;;;7.32;4.10;;;21.90;50.30;;;;;;5045993;28;20029;-52
2023/07/10 06:38:28;;;;;;;5.53;4.53;;;21.80;52.30;;;;;;5050278;28;20032;-54
2023/07/10 06:40:54;;;;;;;4.97;3.65;;;21.70;53.20;;;;;;5029299;28;20030;-55
2023/07/10 06:43:20;;;;;;;6.03;4.30;;;21.60;53.90;;;;;;5049705;28;20431;-56
2023/07/10 06:45:46;;;;;;;5.70;4.68;;;21.60;58.10;;;;;;5028982;28;20033;-56
2023/07/10 06:48:12;;;;;;;6.55;5.00;;;21.30;62.50;;;;;;5049662;28;20082;-54
2023/07/10 06:50:38;;;;;;;6.40;4.50;;;21.20;63.40;;;;;;5028850;28;20061;-52
2023/07/10 06:53:04;;;;;;;6.00;4.40;;;21.00;64.50;;;;;;5049884;28;20032;-60
2023/07/10 06:55:30;;;;;;;5.28;4.10;;;21.00;67.50;;;;;;5028818;28;20037;-59
2023/07/10 06:57:56;;;;;;;8.65;4.32;;;21.00;66.90;;;;;;5049564;28;20040;-59
2023/07/10 07:00:22;;;;;;;7.30;4.22;;;20.90;68.30;;;;;;5029026;28;20541;-60
2023/07/10 07:02:47;;;;;;;7.65;3.90;;;20.90;67.60;;;;;;5048015;28;20028;-59
2023/07/10 07:05:13;;;;;;;5.35;3.70;;;20.90;67.90;;;;;;5032901;28;20036;-60
2023/07/10 07:07:40;;;;;;;4.80;3.83;;;21.00;68.30;;;;;;5049844;28;20061;-58
2023/07/10 07:10:08;;;;;;;6.65;4.35;;;21.10;68.90;;;;;;5028300;28;20059;-59
2023/07/10 07:12:34;;;;;;;6.57;4.43;;;21.20;70.70;;;;;;5049533;28;20043;-59
2023/07/10 07:15:00;;;;;;;5.65;4.80;;;21.30;70.10;;;;;;5028494;28;20038;-60
2023/07/10 07:17:25;;;;;;;7.63;5.65;;;21.40;68.80;;;;;;5049217;28;20532;-59
2023/07/10 07:19:51;;;;;;;6.28;4.63;;;21.60;70.20;;;;;;5028293;28;20143;-59
2023/07/10 07:22:16;;;;;;;5.30;4.10;;;21.80;66.80;;;;;;5048317;28;20029;-59
2023/07/10 07:24:42;;;;;;;5.32;4.47;;;22.10;66.30;;;;;;5028355;28;20044;-58
2023/07/10 07:27:08;;;;;;;7.28;5.25;;;22.40;65.30;;;;;;5029722;28;20048;-59
2023/07/10 07:29:33;;;;;;;6.35;4.82;;;22.60;63.20;;;;;;5040401;28;20037;-59
2023/07/10 07:32:00;;;;;;;7.47;5.10;;;22.90;62.70;;;;;;5029579;28;20044;-59
2023/07/10 07:34:26;;;;;;;7.18;5.38;;;23.20;61.40;;;;;;5046988;28;20033;-59
2023/07/10 07:36:52;;;;;;;7.88;5.40;;;23.50;58.00;;;;;;5049365;28;20029;-60
2023/07/10 07:39:20;;;;;;;8.30;5.80;;;23.50;57.60;;;;;;5047229;28;20035;-60
2023/07/10 07:41:46;;;;;;;7.55;5.05;;;23.60;57.50;;;;;;5048145;28;20485;-59
2023/07/10 07:44:11;;;;;;;6.88;4.55;;;23.70;57.70;;;;;;5026614;28;20125;-60
2023/07/10 07:46:37;;;;;;;5.53;4.85;;;23.80;56.60;;;;;;5029444;28;20108;-59
2023/07/10 07:49:02;;;;;;;5.68;5.05;;;23.70;56.30;;;;;;5044451;28;20477;-59
2023/07/10 07:51:29;;;;;;;6.25;4.40;;;23.90;56.50;;;;;;5029269;28;20034;-59
2023/07/10 07:54:08;;;;;;;9.50;4.93;;;24.00;55.70;;;;;;5045462;28;20504;-59
2023/07/10 07:56:34;;;;;;;4.82;4.13;;;24.10;55.20;;;;;;5029115;28;20608;-59
2023/07/10 07:58:59;;;;;;;6.55;4.78;;;24.10;54.70;;;;;;5044728;28;20041;-59
2023/07/10 08:01:25;;;;;;;5.20;4.00;;;24.20;54.70;;;;;;5029404;28;20029;-59
2023/07/10 08:03:50;;;;;;;5.95;4.53;;;25.10;54.30;;;;;;5045772;28;20508;-59
2023/07/10 08:06:16;;;;;;;5.78;4.60;;;26.60;49.30;;;;;;5022279;28;20029;-59
2023/07/10 08:08:41;;;;;;;5.65;4.70;;;28.00;43.70;;;;;;5048318;28;20029;-59
2023/07/10 08:11:07;;;;;;;6.18;4.35;;;28.80;40.90;;;;;;5027767;28;20037;-60
2023/07/10 08:13:33;;;;;;;5.88;4.93;;;29.60;36.30;;;;;;5048108;28;20025;-60
2023/07/10 08:15:58;;;;;;;6.63;3.97;;;29.50;33.50;;;;;;5027634;28;20041;-59
2023/07/10 08:18:24;;;;;;;4.43;4.03;;;30.40;34.50;;;;;;5048072;28;20516;-60
2023/07/10 08:20:50;;;;;;;4.53;3.85;;;31.20;28.00;;;;;;5027476;28;20030;-60
2023/07/10 08:23:15;;;;;;;5.45;3.53;;;31.80;29.30;;;;;;5048139;28;20025;-60
2023/07/10 08:25:41;;;;;;;4.75;3.38;;;32.30;24.70;;;;;;5027412;28;20067;-60
2023/07/10 08:28:06;;;;;;;6.03;3.63;;;32.40;24.60;;;;;;5048226;28;20039;-60
2023/07/10 08:30:32;;;;;;;4.65;3.75;;;32.40;23.70;;;;;;5027283;28;20531;-60
2023/07/10 08:32:57;;;;;;;4.25;3.55;;;33.10;20.30;;;;;;5050282;28;20040;-57
2023/07/10 08:35:23;;;;;;;5.13;3.97;;;33.00;20.50;;;;;;5031441;28;20041;-58
2023/07/10 08:37:49;;;;;;;3.75;3.15;;;32.40;18.80;;;;;;5054171;28;20473;-57
2023/07/10 08:40:20;;;;;;;4.72;3.70;;;32.70;19.80;;;;;;5031894;28;20448;-57
2023/07/10 08:42:46;;;;;;;5.40;3.50;;;32.30;19.30;;;;;;5014111;28;20399;-57
2023/07/10 08:45:18;;;;;;;4.00;3.60;;;32.60;19.60;;;;;;5038686;28;20044;-58
2023/07/10 08:47:49;;;;;;;4.43;3.78;;;32.90;18.50;;;;;;5013431;28;20654;-58
2023/07/10 08:50:17;;;;;;;3.30;3.00;;;32.70;18.70;;;;;;5023967;28;20034;-57
2023/07/10 08:53:07;;;;;;;4.35;3.95;;;32.70;19.20;;;;;;5051996;28;20029;-57
2023/07/10 08:55:59;;;;;;;5.75;3.90;;;32.90;16.90;;;;;;5030804;28;20095;-57
2023/07/10 08:58:29;;;;;;;4.93;3.95;;;33.40;17.40;;;;;;5012904;28;20029;-58
2023/07/10 09:01:01;;;;;;;5.00;4.03;;;33.60;17.50;;;;;;5028195;28;20405;-58
2023/07/10 09:03:41;;;;;;;5.05;4.00;;;33.50;16.30;;;;;;5051996;28;20029;-58
2023/07/10 09:06:16;;;;;;;4.57;4.00;;;33.50;15.90;;;;;;5022289;28;20554;-51
2023/07/10 09:08:44;;;;;;;4.35;3.80;;;33.50;17.10;;;;;;5012605;28;20104;-47
2023/07/10 09:11:12;;;;;;;4.63;3.70;;;33.70;16.30;;;;;;5049881;28;20068;-48
2023/07/10 09:13:42;;;;;;;3.95;3.65;;;33.50;15.10;;;;;;5051941;28;20682;-52
2023/07/10 09:16:16;;;;;;;4.82;4.10;;;33.60;14.90;;;;;;5029897;28;20393;-54
2023/07/10 09:18:51;;;;;;;4.93;3.67;;;33.40;14.10;;;;;;5051766;28;20072;-54
2023/07/10 09:21:19;;;;;;;6.72;4.05;;;33.50;15.20;;;;;;5012309;28;20057;-54
2023/07/10 09:23:46;;;;;;;7.00;4.57;;;33.70;15.40;;;;;;5051262;28;20041;-53
2023/07/10 09:26:18;;;;;;;5.10;4.40;;;33.20;14.30;;;;;;5030046;28;20128;-54
2023/07/10 09:28:58;;;;;;;5.85;4.50;;;33.10;15.00;;;;;;5012313;28;20036;-54
2023/07/10 09:31:39;;;;;;;5.20;3.97;;;33.40;14.60;;;;;;5011958;28;20115;-55
2023/07/10 09:34:04;;;;;;;6.82;4.68;;;33.60;13.30;;;;;;5012422;28;20105;-54
2023/07/10 09:36:30;;;;;;;4.57;4.07;;;33.60;14.40;;;;;;5031981;28;20112;-54
2023/07/10 09:39:03;;;;;;;5.68;4.28;;;33.60;14.30;;;;;;5048092;28;20485;-55
2023/07/10 09:41:29;;;;;;;5.75;4.18;;;33.80;14.30;;;;;;5031710;28;20040;-54
2023/07/10 09:44:03;;;;;;;4.70;4.30;;;33.80;14.50;;;;;;5048076;28;20075;-54
2023/07/10 09:46:32;;;;;;;4.60;4.03;;;33.90;14.50;;;;;;5051539;28;20065;-54
2023/07/10 09:49:00;;;;;;;7.60;4.13;;;34.00;14.20;;;;;;5047979;28;20067;-54
2023/07/10 09:51:27;;;;;;;6.38;4.72;;;34.10;14.30;;;;;;5031367;28;20038;-54
2023/07/10 09:54:02;;;;;;;5.28;4.75;;;33.60;14.00;;;;;;5048036;28;20029;-53
2023/07/10 09:56:30;;;;;;;6.13;4.53;;;33.30;14.60;;;;;;5031453;28;20532;-54
2023/07/10 09:58:56;;;;;;;4.97;4.30;;;33.20;14.70;;;;;;5047869;28;20290;-54
2023/07/10 10:01:27;;;;;;;6.75;4.22;;;32.90;14.80;;;;;;5031400;28;20481;-53
2023/07/10 10:03:54;;;;;;;4.80;4.35;;;33.20;14.40;;;;;;5047882;28;20033;-54
2023/07/10 10:06:26;;;;;;;6.47;4.65;;;33.30;14.10;;;;;;5024079;28;20017;-53
2023/07/10 10:08:53;;;;;;;4.43;3.90;;;33.00;13.80;;;;;;5048225;28;20064;-54
2023/07/10 10:11:33;;;;;;;7.10;4.43;;;33.00;14.30;;;;;;5031253;28;20120;-53
2023/07/10 10:14:02;;;;;;;5.70;4.90;;;32.60;14.70;;;;;;5010902;28;20442;-54
2023/07/10 10:16:38;;;;;;;10.55;5.50;;;32.40;14.40;;;;;;5031209;28;20045;-50
2023/07/10 10:19:18;;;;;;;7.20;4.82;;;32.00;14.80;;;;;;5011579;28;20091;-52
2023/07/10 10:21:44;;;;;;;5.10;4.47;;;31.60;15.50;;;;;;5030854;28;20025;-52
2023/07/10 10:24:11;;;;;;;4.75;4.35;;;31.60;15.40;;;;;;5044998;28;20090;-54
2023/07/10 10:27:06;;;;;;;4.93;4.43;;;31.90;15.10;;;;;;5031879;28;20029;-53
2023/07/10 10:29:56;;;;;;;4.28;3.72;;;31.90;15.40;;;;;;5046103;28;20120;-54
2023/07/10 10:32:41;;;;;;;6.63;4.43;;;32.00;15.60;;;;;;5029147;28;20029;-53
2023/07/10 10:35:38;;;;;;;6.13;4.50;;;32.10;15.70;;;;;;5011142;28;20116;-54
2023/07/10 10:38:35;;;;;;;4.30;3.90;;;32.20;15.40;;;;;;5011222;28;20057;-52
2023/07/10 10:41:40;;;;;;;4.45;4.05;;;32.30;15.50;;;;;;5013604;28;20041;-51
2023/07/10 10:44:27;;;;;;;4.90;4.30;;;32.60;14.90;;;;;;5030590;28;20033;-53
2023/07/10 10:47:01;;;;;;;4.90;3.95;;;32.90;14.20;;;;;;5020289;28;20068;-53
2023/07/10 10:49:45;;;;;;;5.40;4.35;;;32.90;15.10;;;;;;5010702;28;20034;-53
2023/07/10 10:52:50;;;;;;;5.13;4.07;;;33.20;14.60;;;;;;5024859;28;20037;-53
2023/07/10 10:55:32;;;;;;;4.45;4.05;;;33.30;14.40;;;;;;5022441;28;20478;-48
2023/07/10 10:58:02;;;;;;;3.80;3.50;;;33.40;14.80;;;;;;5029519;28;20551;-51
2023/07/10 11:00:55;;;;;;;4.03;3.60;;;33.40;14.20;;;;;;5042484;28;20025;-50
2023/07/10 11:03:32;;;;;;;4.35;3.42;;;33.30;14.10;;;;;;5048509;28;20100;-54
2023/07/10 11:06:10;;;;;;;4.30;3.88;;;33.30;14.10;;;;;;5013263;28;20045;-55
2023/07/10 11:08:43;;;;;;;5.28;4.45;;;33.20;14.20;;;;;;5009810;28;20032;-57
2023/07/10 11:11:20;;;;;;;4.38;3.72;;;33.10;14.30;;;;;;5018015;28;20040;-56
2023/07/10 11:13:46;;;;;;;4.75;4.07;;;33.00;15.20;;;;;;5009509;28;20109;-56
2023/07/10 11:16:12;;;;;;;6.00;4.28;;;33.00;14.30;;;;;;5035022;28;20029;-50
2023/07/10 11:18:38;;;;;;;4.82;4.35;;;33.00;14.50;;;;;;5048568;28;20032;-56
2023/07/10 11:21:03;;;;;;;4.57;4.10;;;32.80;14.40;;;;;;5027538;28;20060;-55
2023/07/10 11:23:41;;;;;;;8.27;4.50;;;32.60;14.50;;;;;;5048244;28;20405;-56
2023/07/10 11:26:14;;;;;;;7.72;5.07;;;32.70;14.80;;;;;;5027724;28;20045;-56
2023/07/10 11:28:53;;;;;;;5.07;4.57;;;32.70;14.60;;;;;;5048277;28;20029;-51
2023/07/10 11:31:37;;;;;;;7.57;5.20;;;32.50;15.00;;;;;;5026793;28;20446;-55
2023/07/10 11:34:05;;;;;;;5.53;5.00;;;32.50;15.10;;;;;;5009202;28;20057;-56
2023/07/10 11:36:34;;;;;;;5.22;4.40;;;32.60;15.00;;;;;;5032095;28;20041;-56
2023/07/10 11:39:05;;;;;;;5.43;3.92;;;32.80;15.30;;;;;;5047829;28;20661;-56
2023/07/10 11:41:35;;;;;;;4.93;4.45;;;33.00;15.60;;;;;;5027572;28;20572;-53
2023/07/10 11:44:29;;;;;;;6.63;4.82;;;33.10;15.00;;;;;;5048450;28;20036;-54
2023/07/10 11:46:59;;;;;;;6.88;5.50;;;33.30;14.50;;;;;;5027217;28;20486;-57
2023/07/10 11:50:05;;;;;;;5.97;4.93;;;33.30;14.30;;;;;;5048335;28;20031;-56
2023/07/10 11:52:32;;;;;;;5.15;4.65;;;33.50;14.10;;;;;;5008796;28;20100;-55
2023/07/10 11:54:58;;;;;;;5.43;4.35;;;33.50;14.00;;;;;;5044435;28;20057;-56
2023/07/10 11:57:28;;;;;;;5.55;5.05;;;33.60;14.10;;;;;;5028875;28;20517;-57
2023/07/10 11:59:58;;;;;;;5.40;4.90;;;33.60;13.80;;;;;;5030533;28;20124;-54
2023/07/10 12:02:29;;;;;;;4.70;4.18;;;33.60;13.90;;;;;;5028623;28;20385;-54
2023/07/10 12:05:02;;;;;;;6.63;4.93;;;33.60;14.10;;;;;;5012973;28;20108;-56
2023/07/10 12:07:28;;;;;;;5.78;5.18;;;33.60;13.90;;;;;;5048153;28;20021;-55
2023/07/10 12:09:59;;;;;;;6.90;4.80;;;33.60;13.90;;;;;;5045611;28;20044;-51
2023/07/10 12:12:32;;;;;;;5.30;4.72;;;33.70;14.10;;;;;;5028355;28;20040;-50
2023/07/10 12:15:01;;;;;;;5.63;4.93;;;33.70;14.10;;;;;;5007439;28;20025;-55
2023/07/10 12:17:30;;;;;;;6.05;5.05;;;33.70;13.80;;;;;;5028424;28;20021;-56
2023/07/10 12:19:59;;;;;;;5.32;4.82;;;33.70;13.80;;;;;;5045110;28;20021;-55
2023/07/10 12:22:28;;;;;;;5.90;4.45;;;33.70;13.80;;;;;;5028207;28;20029;-55
2023/07/10 12:24:58;;;;;;;6.85;4.75;;;33.70;13.90;;;;;;5045912;28;20115;-56
2023/07/10 12:27:24;;;;;;;5.38;4.80;;;33.70;13.90;;;;;;5047916;28;20059;-52
2023/07/10 12:29:51;;;;;;;9.27;4.97;;;33.70;13.80;;;;;;5040473;28;20077;-54
2023/07/10 12:32:18;;;;;;;5.07;4.57;;;33.70;14.00;;;;;;5008293;28;20034;-56
2023/07/10 12:34:44;;;;;;;5.10;4.20;;;33.70;14.00;;;;;;5046759;28;20488;-55
2023/07/10 12:37:12;;;;;;;6.10;4.93;;;33.70;14.10;;;;;;5028649;28;20083;-55
2023/07/10 12:39:38;;;;;;;6.82;5.40;;;33.60;14.00;;;;;;5048814;28;20048;-55
2023/07/10 12:42:31;;;;;;;6.55;4.53;;;33.40;13.90;;;;;;5027671;28;20084;-51
2023/07/10 12:44:57;;;;;;;8.73;5.28;;;33.40;14.20;;;;;;5008133;28;20151;-55
2023/07/10 12:47:22;;;;;;;5.90;4.78;;;33.20;14.20;;;;;;5026929;28;20527;-56
2023/07/10 12:49:53;;;;;;;6.50;5.47;;;33.20;14.30;;;;;;5028441;28;20045;-54
2023/07/10 12:52:23;;;;;;;7.15;5.03;;;33.00;14.50;;;;;;5043624;28;20029;-55
2023/07/10 12:54:57;;;;;;;8.00;6.18;;;33.00;14.80;;;;;;5026932;28;20072;-59
2023/07/10 12:57:29;;;;;;;7.47;5.72;;;32.80;15.80;;;;;;5048899;28;20033;-60